Time;durP1;ratioP1;P1;durP2;ratioP2;P2;SDS_P1;SDS_P2;PMS_P1;PMS_P2;Temp;Humidity;BMP_temperature;BMP_pressure;BME280_temperature;BME280_humidity;BME280_pressure;Samples;Min_cycle;Max_cycle;Signal;HPM_P1;HPM_P2
2022/05/06 00:02:25;;;;;;;29.50;17.00;;;;;;;-145.50;100.00;65435.88;5063279;28;20135;-68
2022/05/06 00:04:51;;;;;;;28.52;16.95;;;;;;;-145.50;100.00;65435.88;5060197;28;20497;-68
2022/05/06 00:07:18;;;;;;;29.17;18.20;;;;;;;-145.50;100.00;65435.88;5063921;28;20211;-67
2022/05/06 00:09:45;;;;;;;33.03;20.27;;;;;;;-145.50;100.00;65435.88;5069674;28;20063;-67
2022/05/06 00:12:17;;;;;;;33.80;19.40;;;;;;;-145.50;100.00;65435.88;5047592;28;20058;-71
2022/05/06 00:14:45;;;;;;;33.33;19.17;;;;;;;-145.50;100.00;65435.88;5068342;28;20529;-68
2022/05/06 00:17:12;;;;;;;29.47;19.80;;;;;;;-145.50;100.00;65435.88;5084531;28;20112;-68
2022/05/06 00:19:39;;;;;;;38.58;21.52;;;;;;;-145.50;100.00;65435.88;5068181;28;20217;-68
2022/05/06 00:22:06;;;;;;;30.77;18.95;;;;;;;-145.50;100.00;65435.88;5077188;28;20715;-68
2022/05/06 00:24:32;;;;;;;35.55;20.65;;;;;;;-145.50;100.00;65435.88;5073021;28;20163;-68
2022/05/06 00:26:59;;;;;;;33.40;20.13;;;;;;;-145.50;100.00;65435.88;5061516;28;20045;-69
2022/05/06 00:29:26;;;;;;;37.10;20.73;;;;;;;-145.50;100.00;65435.88;5064737;28;20066;-68
2022/05/06 00:31:52;;;;;;;32.33;20.48;;;;;;;-145.50;100.00;65435.88;5061420;28;20167;-68
2022/05/06 00:34:19;;;;;;;35.30;20.10;;;;;;;-145.50;100.00;65435.88;5056502;28;20060;-68
2022/05/06 00:36:45;;;;;;;37.60;21.50;;;;;;;-145.50;100.00;65435.88;5072166;28;20052;-68
2022/05/06 00:39:12;;;;;;;33.85;20.35;;;;;;;-145.50;100.00;65435.88;5049570;28;20759;-68
2022/05/06 00:41:39;;;;;;;36.08;20.73;;;;;;;-145.50;100.00;65435.88;5057573;28;20056;-69
2022/05/06 00:44:06;;;;;;;36.88;23.20;;;;;;;-145.50;100.00;65435.88;5071794;28;20048;-69
2022/05/06 00:46:37;;;;;;;35.08;20.80;;;;;;;-145.50;100.00;65435.88;5057852;28;20048;-69
2022/05/06 00:49:07;;;;;;;36.78;21.73;;;;;;;-145.50;100.00;65435.88;5065613;28;20052;-68
2022/05/06 00:51:34;;;;;;;31.13;20.90;;;;;;;-145.50;100.00;65435.88;5067862;28;20055;-69
2022/05/06 00:54:02;;;;;;;37.05;22.00;;;;;;;-145.50;100.00;65435.88;5060401;28;20052;-67
2022/05/06 00:56:28;;;;;;;35.55;20.83;;;;;;;-145.50;100.00;65435.88;5051182;28;20112;-68
2022/05/06 00:58:55;;;;;;;40.55;21.55;;;;;;;-145.50;100.00;65435.88;5060068;28;20135;-67
2022/05/06 01:01:21;;;;;;;37.38;20.58;;;;;;;-145.50;100.00;65435.88;5062387;28;20054;-68
2022/05/06 01:03:48;;;;;;;36.25;21.90;;;;;;;-145.50;100.00;65435.88;5057031;28;20044;-68
2022/05/06 01:06:15;;;;;;;38.72;21.73;;;;;;;-145.50;100.00;65435.88;5061171;28;20259;-67
2022/05/06 01:08:43;;;;;;;39.03;22.13;;;;;;;-145.50;100.00;65435.88;5048161;28;20056;-67
2022/05/06 01:11:13;;;;;;;35.03;20.92;;;;;;;-145.50;100.00;65435.88;5063450;28;20506;-68
2022/05/06 01:13:45;;;;;;;40.50;22.60;;;;;;;-145.50;100.00;65435.88;5067320;28;20126;-68
2022/05/06 01:16:12;;;;;;;39.58;23.13;;;;;;;-145.50;100.00;65435.88;5063701;28;20060;-67
2022/05/06 01:18:39;;;;;;;33.38;20.58;;;;;;;-145.50;100.00;65435.88;5073220;28;20585;-67
2022/05/06 01:21:09;;;;;;;40.38;23.27;;;;;;;-145.50;100.00;65435.88;5065913;28;20052;-68
2022/05/06 01:23:37;;;;;;;39.47;22.85;;;;;;;-145.50;100.00;65435.88;5076761;28;20052;-68
2022/05/06 01:26:04;;;;;;;;;;;;;;;-145.50;100.00;65435.88;5067944;28;20462;-68
2022/05/06 01:28:33;;;;;;;42.22;23.02;;;;;;;-145.50;100.00;65435.88;5068344;28;19924;-68
2022/05/06 01:31:01;;;;;;;40.80;23.42;;;;;;;-145.50;100.00;65435.88;5050567;28;20062;-67
2022/05/06 01:33:29;;;;;;;40.03;22.65;;;;;;;-145.50;100.00;65435.88;5068240;28;20470;-67
2022/05/06 01:36:01;;;;;;;;;;;;;;;-145.50;100.00;65435.88;5077203;28;20056;-68
2022/05/06 01:38:39;;;;;;;47.13;24.27;;;;;;;-145.50;100.00;65435.88;5060479;28;20300;-67
2022/05/06 01:41:09;;;;;;;40.70;23.13;;;;;;;-145.50;100.00;65435.88;5071227;28;20049;-67
2022/05/06 01:43:42;;;;;;;52.58;26.42;;;;;;;-145.50;100.00;65435.88;5059151;28;20497;-68
2022/05/06 01:46:14;;;;;;;52.50;28.10;;;;;;;-145.50;100.00;65435.88;5073773;28;20452;-68
2022/05/06 01:48:46;;;;;;;48.88;26.45;;;;;;;-145.50;100.00;65435.88;5069228;28;20044;-68
2022/05/06 01:51:17;;;;;;;49.33;27.13;;;;;;;-145.50;100.00;65435.88;5057940;28;20080;-68
2022/05/06 01:53:44;;;;;;;45.63;26.05;;;;;;;-145.50;100.00;65435.88;5052630;28;20056;-68
2022/05/06 01:56:11;;;;;;;48.65;25.58;;;;;;;-145.50;100.00;65435.88;5060742;28;20044;-68
2022/05/06 01:58:38;;;;;;;48.35;25.35;;;;;;;-145.50;100.00;65435.88;5060263;28;20055;-68
2022/05/06 02:01:05;;;;;;;49.05;25.83;;;;;;;-145.50;100.00;65435.88;5062980;28;20583;-67
2022/05/06 02:06:17;;;;;;;44.67;23.88;;;;;;;-145.50;100.00;65435.88;5062336;28;20090;-68
2022/05/06 02:08:44;;;;;;;45.30;25.35;;;;;;;-145.50;100.00;65435.88;5064157;28;20048;-68
2022/05/06 02:11:11;;;;;;;43.40;26.27;;;;;;;-145.50;100.00;65435.88;5066035;28;20045;-68
2022/05/06 02:13:38;;;;;;;40.15;23.85;;;;;;;-145.50;100.00;65435.88;5059769;28;20121;-67
2022/05/06 02:16:05;;;;;;;42.42;24.08;;;;;;;-145.50;100.00;65435.88;5071528;28;20055;-67
2022/05/06 02:18:31;;;;;;;40.08;23.60;;;;;;;-145.50;100.00;65435.88;5045187;28;20069;-68
2022/05/06 02:20:59;;;;;;;41.58;23.80;;;;;;;-145.50;100.00;65435.88;5059177;28;20499;-68
2022/05/06 02:23:26;;;;;;;46.13;24.27;;;;;;;-145.50;100.00;65435.88;5043638;28;20056;-68
2022/05/06 02:25:53;;;;;;;49.22;25.92;;;;;;;-145.50;100.00;65435.88;5071870;28;20292;-68
2022/05/06 02:28:20;;;;;;;47.45;25.88;;;;;;;-145.50;100.00;65435.88;5072554;28;20086;-68
2022/05/06 02:33:31;;;;;;;47.20;25.67;;;;;;;-145.50;100.00;65435.88;5063537;28;20052;-67
2022/05/06 02:35:59;;;;;;;42.72;24.73;;;;;;;-145.50;100.00;65435.88;5062880;28;20044;-68
2022/05/06 02:38:27;;;;;;;44.63;25.10;;;;;;;-145.50;100.00;65435.88;5081373;28;20817;-67
2022/05/06 02:40:54;;;;;;;45.10;26.98;;;;;;;-145.50;100.00;65435.88;5080276;28;20043;-68
2022/05/06 02:43:21;;;;;;;44.03;25.92;;;;;;;-145.50;100.00;65435.88;5079116;28;20078;-68
2022/05/06 02:45:47;;;;;;;49.28;28.58;;;;;;;-145.50;100.00;65435.88;5068591;28;20070;-68
2022/05/06 02:48:14;;;;;;;55.60;29.63;;;;;;;-145.50;100.00;65435.88;5069771;28;20048;-68
2022/05/06 02:50:42;;;;;;;47.17;28.25;;;;;;;-145.50;100.00;65435.88;5058646;28;20052;-69
2022/05/06 02:53:09;;;;;;;57.25;31.65;;;;;;;-145.50;100.00;65435.88;5062863;28;20468;-68
2022/05/06 02:55:36;;;;;;;58.58;31.88;;;;;;;-145.50;100.00;65435.88;5063684;28;20455;-68
2022/05/06 02:58:03;;;;;;;51.83;28.42;;;;;;;-145.50;100.00;65435.88;5049636;28;20127;-68
2022/05/06 03:00:30;;;;;;;64.72;31.90;;;;;;;-145.50;100.00;65435.88;5051570;28;20245;-68
2022/05/06 03:02:57;;;;;;;56.58;30.50;;;;;;;-145.50;100.00;65435.88;5058490;28;20502;-67
2022/05/06 03:05:24;;;;;;;48.15;28.13;;;;;;;-145.50;100.00;65435.88;5072759;28;20052;-67
2022/05/06 03:07:51;;;;;;;52.10;28.27;;;;;;;-145.50;100.00;65435.88;5062047;28;20543;-67
2022/05/06 03:10:17;;;;;;;57.17;30.92;;;;;;;-145.50;100.00;65435.88;5061678;28;20098;-68
2022/05/06 03:12:44;;;;;;;55.03;30.25;;;;;;;-145.50;100.00;65435.88;5065563;28;20180;-67
2022/05/06 03:15:11;;;;;;;61.58;30.65;;;;;;;-145.50;100.00;65435.88;5047335;28;20052;-68
2022/05/06 03:17:37;;;;;;;56.55;31.38;;;;;;;-145.50;100.00;65435.88;5062529;28;20055;-67
2022/05/06 03:20:07;;;;;;;58.03;30.92;;;;;;;-145.50;100.00;65435.88;5075782;28;20488;-68
2022/05/06 03:22:42;;;;;;;55.85;30.70;;;;;;;-145.50;100.00;65435.88;5058344;28;20144;-68
2022/05/06 03:25:10;;;;;;;52.85;31.00;;;;;;;-145.50;100.00;65435.88;5058100;28;20063;-69
2022/05/06 03:30:23;;;;;;;53.83;30.70;;;;;;;-145.50;100.00;65435.88;5073452;28;20056;-68
2022/05/06 03:32:50;;;;;;;61.90;32.65;;;;;;;-145.50;100.00;65435.88;5068991;28;20044;-68
2022/05/06 03:35:17;;;;;;;64.75;32.97;;;;;;;-145.50;100.00;65435.88;5065287;28;20048;-68
2022/05/06 03:37:44;;;;;;;63.13;31.13;;;;;;;-145.50;100.00;65435.88;5061738;28;20457;-68
2022/05/06 03:40:11;;;;;;;52.40;30.00;;;;;;;-145.50;100.00;65435.88;5061840;28;20462;-68
2022/05/06 03:42:38;;;;;;;63.00;29.92;;;;;;;-145.50;100.00;65435.88;5074736;28;20048;-69
2022/05/06 03:45:06;;;;;;;51.53;28.52;;;;;;;-145.50;100.00;65435.88;5047106;28;20076;-68
2022/05/06 03:47:34;;;;;;;44.88;26.77;;;;;;;-145.50;100.00;65435.88;5060022;28;20105;-68
2022/05/06 03:52:51;;;;;;;45.20;26.23;;;;;;;-145.50;100.00;65435.88;5059533;28;20048;-68
2022/05/06 03:55:18;;;;;;;38.08;24.13;;;;;;;-145.50;100.00;65435.88;5046607;28;20053;-67
2022/05/06 03:57:45;;;;;;;46.95;23.45;;;;;;;-145.50;100.00;65435.88;5065503;28;20072;-67
2022/05/06 04:00:13;;;;;;;38.33;24.20;;;;;;;-145.50;100.00;65435.88;5067050;28;20058;-67
2022/05/06 04:02:39;;;;;;;42.53;25.40;;;;;;;-145.50;100.00;65435.88;5083669;28;20588;-68
2022/05/06 04:05:06;;;;;;;41.88;23.60;;;;;;;-145.50;100.00;65435.88;5080466;28;20639;-68
2022/05/06 04:07:33;;;;;;;42.10;23.02;;;;;;;-145.50;100.00;65435.88;5070265;28;20048;-68
2022/05/06 04:09:59;;;;;;;40.83;25.00;;;;;;;-145.50;100.00;65435.88;5078063;28;20139;-68
2022/05/06 04:12:26;;;;;;;33.45;22.98;;;;;;;-145.50;100.00;65435.88;5067387;28;20058;-67
2022/05/06 04:14:52;;;;;;;38.28;23.70;;;;;;;-145.50;100.00;65435.88;5057159;28;20487;-68
2022/05/06 04:17:20;;;;;;;33.65;21.63;;;;;;;-145.50;100.00;65435.88;5071595;28;20405;-68
2022/05/06 04:25:20;;;;;;;40.10;21.35;;;;;;;-145.50;100.00;65435.88;5066669;28;20138;-67
2022/05/06 04:27:47;;;;;;;62.28;22.98;;;;;;;-145.50;100.00;65435.88;5072402;28;20691;-68
2022/05/06 04:30:13;;;;;;;35.83;23.00;;;;;;;-145.50;100.00;65435.88;5052111;28;20049;-68
2022/05/06 04:32:40;;;;;;;43.78;24.73;;;;;;;-145.50;100.00;65435.88;5062345;28;20139;-68
2022/05/06 04:35:08;;;;;;;50.22;23.67;;;;;;;-145.50;100.00;65435.88;5064323;28;20054;-68
2022/05/06 04:37:35;;;;;;;45.50;23.55;;;;;;;-145.50;100.00;65435.88;5070125;28;20136;-68
2022/05/06 04:40:03;;;;;;;42.42;23.80;;;;;;;-145.50;100.00;65435.88;5073034;28;20119;-68
2022/05/06 04:42:30;;;;;;;;;;;;;;;-145.50;100.00;65435.88;5062610;28;20564;-68
2022/05/06 04:44:57;;;;;;;38.08;22.23;;;;;;;-145.50;100.00;65435.88;5070413;28;19940;-68
2022/05/06 04:47:23;;;;;;;34.08;21.60;;;;;;;-145.50;100.00;65435.88;5076129;28;20877;-68
2022/05/06 04:49:49;;;;;;;38.30;23.00;;;;;;;-145.50;100.00;65435.88;5057768;28;20055;-68
2022/05/06 04:52:16;;;;;;;95.28;24.15;;;;;;;-145.50;100.00;65435.88;5074062;28;20052;-67
2022/05/06 04:54:42;;;;;;;41.10;22.95;;;;;;;-145.50;100.00;65435.88;5073830;28;20535;-67
2022/05/06 04:57:10;;;;;;;39.03;21.83;;;;;;;-145.50;100.00;65435.88;5064958;28;20518;-68
2022/05/06 04:59:37;;;;;;;36.05;22.15;;;;;;;-145.50;100.00;65435.88;5067322;28;20049;-69
2022/05/06 05:02:03;;;;;;;38.72;20.27;;;;;;;-145.50;100.00;65435.88;5065667;28;20421;-68
2022/05/06 05:04:30;;;;;;;34.22;21.27;;;;;;;-145.50;100.00;65435.88;5053499;28;20049;-68
2022/05/06 05:06:57;;;;;;;33.35;21.40;;;;;;;-145.50;100.00;65435.88;5061016;28;20071;-68
2022/05/06 05:09:23;;;;;;;43.75;20.92;;;;;;;-145.50;100.00;65435.88;5064573;28;20048;-67
2022/05/06 05:11:51;;;;;;;36.05;21.20;;;;;;;-145.50;100.00;65435.88;5055980;28;20052;-67
2022/05/06 05:14:17;;;;;;;29.40;20.75;;;;;;;-145.50;100.00;65435.88;5069285;28;20114;-67
2022/05/06 05:16:44;;;;;;;34.15;20.80;;;;;;;-145.50;100.00;65435.88;5059709;28;20047;-68
2022/05/06 05:19:10;;;;;;;33.95;21.42;;;;;;;-145.50;100.00;65435.88;5071127;28;20076;-67
2022/05/06 05:21:37;;;;;;;31.00;19.85;;;;;;;-145.50;100.00;65435.88;5065696;28;20049;-68
2022/05/06 05:24:04;;;;;;;35.42;21.50;;;;;;;-145.50;100.00;65435.88;5060554;28;20045;-67
2022/05/06 05:26:30;;;;;;;33.58;21.92;;;;;;;-145.50;100.00;65435.88;5060816;28;20143;-67
2022/05/06 05:28:57;;;;;;;45.05;20.90;;;;;;;-145.50;100.00;65435.88;5052925;28;20036;-68
2022/05/06 05:31:23;;;;;;;32.90;21.13;;;;;;;-145.50;100.00;65435.88;5059961;28;20055;-68
2022/05/06 05:33:50;;;;;;;39.47;21.88;;;;;;;-145.50;100.00;65435.88;5052346;28;20056;-67
2022/05/06 05:36:16;;;;;;;77.88;20.42;;;;;;;-145.50;100.00;65435.88;5070387;28;20048;-68
2022/05/06 05:38:42;;;;;;;32.80;20.38;;;;;;;-145.50;100.00;65435.88;5055070;28;20450;-68
2022/05/06 05:41:09;;;;;;;46.35;21.02;;;;;;;-145.50;100.00;65435.88;5068775;28;20051;-68
2022/05/06 05:49:06;;;;;;;29.60;20.23;;;;;;;-145.50;100.00;65435.88;5081104;28;20386;-68
2022/05/06 05:51:33;;;;;;;27.80;19.33;;;;;;;-145.50;100.00;65435.88;5058404;28;20056;-67
2022/05/06 05:53:59;;;;;;;33.97;19.88;;;;;;;-145.50;100.00;65435.88;5068257;28;20130;-67
2022/05/06 05:56:26;;;;;;;31.17;19.80;;;;;;;-145.50;100.00;65435.88;5062972;28;20430;-66
2022/05/06 05:58:52;;;;;;;45.40;18.77;;;;;;;-145.50;100.00;65435.88;5068070;28;20048;-68
2022/05/06 06:01:19;;;;;;;32.67;19.58;;;;;;;-145.50;100.00;65435.88;5075071;28;20056;-68
2022/05/06 06:03:46;;;;;;;51.90;20.20;;;;;;;-145.50;100.00;65435.88;5075067;28;20079;-68
2022/05/06 06:06:13;;;;;;;40.58;21.02;;;;;;;-145.50;100.00;65435.88;5061160;28;20057;-68
2022/05/06 06:08:39;;;;;;;30.42;20.33;;;;;;;-145.50;100.00;65435.88;5060778;28;20050;-68
2022/05/06 06:11:06;;;;;;;43.53;21.33;;;;;;;-145.50;100.00;65435.88;5063849;28;20535;-68
2022/05/06 06:13:32;;;;;;;34.28;21.75;;;;;;;-145.50;100.00;65435.88;5072400;28;20094;-68
2022/05/06 06:15:58;;;;;;;43.58;22.00;;;;;;;-145.50;100.00;65435.88;5067883;28;20068;-68
2022/05/06 06:18:26;;;;;;;37.83;22.75;;;;;;;-145.50;100.00;65435.88;5079552;28;20052;-68
2022/05/06 06:20:55;;;;;;;52.17;23.90;;;;;;;-145.50;100.00;65435.88;5061366;28;20175;-68
2022/05/06 06:23:22;;;;;;;37.10;23.67;;;;;;;-145.50;100.00;65435.88;5069058;28;20075;-68
2022/05/06 06:25:53;;;;;;;42.15;22.02;;;;;;;-145.50;100.00;65435.88;5058994;28;20059;-68
2022/05/06 06:28:19;;;;;;;43.22;22.30;;;;;;;-145.50;100.00;65435.88;5064719;28;20307;-69
2022/05/06 06:30:46;;;;;;;63.80;24.60;;;;;;;-145.50;100.00;65435.88;5071568;28;20048;-68
2022/05/06 06:33:12;;;;;;;38.70;23.90;;;;;;;-145.50;100.00;65435.88;5071069;28;20087;-68
2022/05/06 06:35:39;;;;;;;49.58;23.92;;;;;;;-145.50;100.00;65435.88;5067580;28;20056;-68
2022/05/06 06:38:06;;;;;;;39.22;24.98;;;;;;;-145.50;100.00;65435.88;5055355;28;20497;-68
2022/05/06 06:40:32;;;;;;;40.97;24.45;;;;;;;-145.50;100.00;65435.88;5075295;28;20040;-68
2022/05/06 06:43:03;;;;;;;40.90;24.10;;;;;;;-145.50;100.00;65435.88;5071314;28;20051;-69
2022/05/06 06:45:30;;;;;;;36.58;23.67;;;;;;;-145.50;100.00;65435.88;5074547;28;20059;-69
2022/05/06 06:47:57;;;;;;;39.28;25.17;;;;;;;-145.50;100.00;65435.88;5066903;28;20055;-68
2022/05/06 06:50:24;;;;;;;44.17;24.70;;;;;;;-145.50;100.00;65435.88;5076972;28;20048;-68
2022/05/06 06:52:51;;;;;;;48.70;24.30;;;;;;;-145.50;100.00;65435.88;5068048;28;20055;-68
2022/05/06 06:55:18;;;;;;;37.78;23.20;;;;;;;-145.50;100.00;65435.88;5052466;28;20051;-68
2022/05/06 06:57:45;;;;;;;35.97;22.65;;;;;;;-145.50;100.00;65435.88;5073304;28;20060;-68
2022/05/06 07:00:12;;;;;;;40.13;21.38;;;;;;;-145.50;100.00;65435.88;5071970;28;20071;-67
2022/05/06 07:02:44;;;;;;;36.50;20.10;;;;;;;-145.50;100.00;65435.88;5073021;28;20059;-68
2022/05/06 07:05:11;;;;;;;32.17;20.13;;;;;;;-145.50;100.00;65435.88;5070105;28;20129;-68
2022/05/06 07:13:33;;;;;;;33.97;19.50;;;;;;;-145.50;100.00;65435.88;5070163;28;20063;-68
2022/05/06 07:16:00;;;;;;;31.85;20.65;;;;;;;-145.50;100.00;65435.88;5065547;28;20049;-67
2022/05/06 07:18:26;;;;;;;33.92;21.38;;;;;;;-145.50;100.00;65435.88;5053996;28;20143;-68
2022/05/06 07:20:54;;;;;;;32.40;19.80;;;;;;;-145.50;100.00;65435.88;5101212;28;20137;-68
2022/05/06 07:23:22;;;;;;;35.92;20.05;;;;;;;-145.50;100.00;65435.88;5094164;28;20845;-68
2022/05/06 07:25:48;;;;;;;34.15;19.15;;;;;;;-145.50;100.00;65435.88;5100162;28;20063;-68
2022/05/06 07:28:14;;;;;;;39.17;20.88;;;;;;;-145.50;100.00;65435.88;5085062;28;20139;-68
2022/05/06 07:30:41;;;;;;;32.58;20.83;;;;;;;-145.50;100.00;65435.88;5070767;28;20059;-68
2022/05/06 07:33:08;;;;;;;33.35;21.00;;;;;;;-145.50;100.00;65435.88;5078325;28;20052;-68
2022/05/06 07:35:38;;;;;;;33.13;21.15;;;;;;;-145.50;100.00;65435.88;5073144;28;20072;-68
2022/05/06 07:38:05;;;;;;;34.38;19.70;;;;;;;-145.50;100.00;65435.88;5080391;28;20047;-69
2022/05/06 07:40:31;;;;;;;33.25;20.33;;;;;;;-145.50;100.00;65435.88;5076401;28;20048;-69
2022/05/06 07:42:58;;;;;;;34.75;19.10;;;;;;;-145.50;100.00;65435.88;5071362;28;20420;-69
2022/05/06 07:45:24;;;;;;;32.72;20.02;;;;;;;-145.50;100.00;65435.88;5074967;28;20493;-68
2022/05/06 07:47:51;;;;;;;34.58;19.35;;;;;;;-145.50;100.00;65435.88;5079886;28;20137;-67
2022/05/06 07:50:32;;;;;;;31.60;19.38;;;;;;;-145.50;100.00;65435.88;5063399;28;20048;-69
2022/05/06 07:52:59;;;;;;;31.85;20.42;;;;;;;-145.50;100.00;65435.88;5054109;28;20056;-69
2022/05/06 07:55:26;;;;;;;31.90;19.73;;;;;;;-145.50;100.00;65435.88;5071706;28;20062;-68
2022/05/06 07:57:53;;;;;;;34.35;20.15;;;;;;;-145.50;100.00;65435.88;5049570;28;20044;-68
2022/05/06 08:00:24;;;;;;;34.63;19.73;;;;;;;-145.50;100.00;65435.88;5057802;28;20054;-68
2022/05/06 08:05:40;;;;;;;28.88;19.55;;;;;;;-145.50;100.00;65435.88;5072044;28;20095;-68
2022/05/06 08:08:07;;;;;;;30.60;19.35;;;;;;;-145.50;100.00;65435.88;5069757;28;20461;-68
2022/05/06 08:10:33;;;;;;;32.03;20.60;;;;;;;-145.50;100.00;65435.88;5071617;28;20151;-69
2022/05/06 08:13:01;;;;;;;32.67;20.27;;;;;;;-145.50;100.00;65435.88;5064119;28;20048;-69
2022/05/06 08:15:28;;;;;;;31.42;19.50;;;;;;;-145.50;100.00;65435.88;5057478;28;20142;-68
2022/05/06 08:17:54;;;;;;;29.77;19.77;;;;;;;-145.50;100.00;65435.88;5075895;28;20350;-68
2022/05/06 08:20:21;;;;;;;27.35;18.33;;;;;;;-145.50;100.00;65435.88;5067912;28;20048;-69
2022/05/06 08:22:48;;;;;;;27.55;18.95;;;;;;;-145.50;100.00;65435.88;5081365;28;20097;-69
2022/05/06 08:25:14;;;;;;;27.67;19.90;;;;;;;-145.50;100.00;65435.88;5078340;28;20517;-68
2022/05/06 08:27:55;;;;;;;28.60;18.27;;;;;;;-145.50;100.00;65435.88;5069683;28;20365;-69
2022/05/06 08:30:21;;;;;;;24.63;18.20;;;;;;;-145.50;100.00;65435.88;5076752;28;20062;-68
2022/05/06 08:32:48;;;;;;;26.60;17.83;;;;;;;-145.50;100.00;65435.88;5075031;28;20434;-68
2022/05/06 08:35:15;;;;;;;19.83;14.50;;;;;;;-145.50;100.00;65435.88;5084481;28;20058;-68
2022/05/06 08:37:43;;;;;;;20.08;14.93;;;;;;;-145.50;100.00;65435.88;5096069;28;20529;-68
2022/05/06 08:40:21;;;;;;;;;;;;;;;-145.50;100.00;65435.88;5099292;28;20750;-68
2022/05/06 08:42:49;;;;;;;18.38;12.88;;;;;;;-145.50;100.00;65435.88;5094561;28;20300;-68
2022/05/06 08:50:56;;;;;;;20.58;14.20;;;;;;;-145.50;100.00;65435.88;5076080;28;20047;-69
2022/05/06 08:53:24;;;;;;;18.52;12.85;;;;;;;-145.50;100.00;65435.88;5080439;28;20052;-69
2022/05/06 08:55:55;;;;;;;22.75;14.00;;;;;;;-145.50;100.00;65435.88;5070618;28;20142;-68
2022/05/06 08:58:23;;;;;;;20.55;13.95;;;;;;;-145.50;100.00;65435.88;5084146;28;20142;-68
2022/05/06 09:00:51;;;;;;;22.02;15.10;;;;;;;-145.50;100.00;65435.88;5075773;28;20054;-68
2022/05/06 09:03:17;;;;;;;21.27;15.50;;;;;;;-145.50;100.00;65435.88;5083049;28;20091;-68
2022/05/06 09:05:52;;;;;;;24.95;15.68;;;;;;;-145.50;100.00;65435.88;5081624;28;20149;-68
2022/05/06 09:08:20;;;;;;;22.58;15.35;;;;;;;-145.50;100.00;65435.88;5068633;28;20043;-67
2022/05/06 09:11:09;;;;;;;19.98;14.32;;;;;;;-145.50;100.00;65435.88;5083097;28;20058;-68
2022/05/06 09:13:36;;;;;;;21.83;14.45;;;;;;;-145.50;100.00;65435.88;5075627;28;20056;-68
2022/05/06 09:19:13;;;;;;;19.98;13.98;;;;;;;-145.50;100.00;65435.88;5084696;28;20048;-69
2022/05/06 09:21:41;;;;;;;19.42;13.90;;;;;;;-145.50;100.00;65435.88;5067605;28;20056;-69
2022/05/06 09:24:20;;;;;;;18.70;13.15;;;;;;;-145.50;100.00;65435.88;5054869;28;20048;-69
2022/05/06 09:27:00;;;;;;;17.83;12.68;;;;;;;-145.50;100.00;65435.88;5080552;28;20085;-68
2022/05/06 09:29:42;;;;;;;17.75;13.20;;;;;;;-145.50;100.00;65435.88;5054816;28;20591;-69
2022/05/06 09:32:22;;;;;;;15.35;11.25;;;;;;;-145.50;100.00;65435.88;5058909;28;20077;-69
2022/05/06 09:34:56;;;;;;;17.33;11.93;;;;;;;-145.50;100.00;65435.88;5062911;28;20600;-69
2022/05/06 09:37:30;;;;;;;15.55;11.30;;;;;;;-145.50;100.00;65435.88;5054353;28;20064;-69
2022/05/06 09:40:03;;;;;;;14.32;11.30;;;;;;;-145.50;100.00;65435.88;5063008;28;20044;-68
2022/05/06 09:42:29;;;;;;;14.05;11.05;;;;;;;-145.50;100.00;65435.88;5061736;28;20055;-69
2022/05/06 09:44:56;;;;;;;14.38;11.60;;;;;;;-145.50;100.00;65435.88;5077536;28;20503;-70
2022/05/06 09:47:25;;;;;;;12.90;10.38;;;;;;;-145.50;100.00;65435.88;5063928;28;20539;-69
2022/05/06 09:49:52;;;;;;;12.60;10.48;;;;;;;-145.50;100.00;65435.88;5073475;28;20127;-69
2022/05/06 09:52:19;;;;;;;12.83;10.50;;;;;;;-145.50;100.00;65435.88;5073559;28;20119;-68
2022/05/06 09:54:49;;;;;;;11.75;10.05;;;;;;;-145.50;100.00;65435.88;5056417;28;20383;-69
2022/05/06 09:57:19;;;;;;;11.93;10.10;;;;;;;-145.50;100.00;65435.88;5081308;28;20057;-69
2022/05/06 09:59:47;;;;;;;11.60;9.23;;;;;;;-145.50;100.00;65435.88;5051784;28;20052;-69
2022/05/06 10:02:14;;;;;;;12.07;9.77;;;;;;;-145.50;100.00;65435.88;5068703;28;20052;-68
2022/05/06 10:04:43;;;;;;;13.43;10.10;;;;;;;-145.50;100.00;65435.88;5060572;28;20142;-69
2022/05/06 10:07:12;;;;;;;13.25;9.80;;;;;;;-145.50;100.00;65435.88;5078455;28;20079;-69
2022/05/06 10:09:47;;;;;;;16.25;9.90;;;;;;;-145.50;100.00;65435.88;5073804;28;20131;-69
2022/05/06 10:12:17;;;;;;;13.45;9.20;;;;;;;-145.50;100.00;65435.88;5081067;28;20052;-68
2022/05/06 10:14:44;;;;;;;9.75;8.35;;;;;;;-145.50;100.00;65435.88;5082248;28;20052;-68
2022/05/06 10:17:11;;;;;;;12.15;9.05;;;;;;;-145.50;100.00;65435.88;5069607;28;20051;-69
2022/05/06 10:19:37;;;;;;;11.68;9.73;;;;;;;-145.50;100.00;65435.88;5065392;28;20127;-69
2022/05/06 10:22:04;;;;;;;11.38;9.45;;;;;;;-145.50;100.00;65435.88;5075136;28;20418;-68
2022/05/06 10:24:39;;;;;;;10.10;8.13;;;;;;;-145.50;100.00;65435.88;5082854;28;20058;-68
2022/05/06 10:33:18;;;;;;;11.50;7.73;;;;;;;-145.50;100.00;65435.88;5067814;28;20048;-69
2022/05/06 10:35:47;;;;;;;10.68;8.23;;;;;;;-145.50;100.00;65435.88;5076823;28;20383;-68
2022/05/06 10:38:21;;;;;;;11.02;6.53;;;;;;;-145.50;100.00;65435.88;5075926;28;20059;-68
2022/05/06 10:40:58;;;;;;;10.15;7.57;;;;;;;-145.50;100.00;65435.88;5082683;28;20385;-69
2022/05/06 10:43:45;;;;;;;10.27;6.43;;;;;;;-145.50;100.00;65435.88;5082668;28;20056;-70
2022/05/06 10:46:29;;;;;;;8.90;6.80;;;;;;;-145.50;100.00;65435.88;5059348;28;20091;-69
2022/05/06 10:49:34;;;;;;;7.25;5.97;;;;;;;-145.50;100.00;65435.88;5063298;28;20136;-68
2022/05/06 10:52:36;;;;;;;8.48;5.50;;;;;;;-145.50;100.00;65435.88;5057633;28;20056;-69
2022/05/06 10:55:03;;;;;;;6.65;4.85;;;;;;;-145.50;100.00;65435.88;5056902;28;20170;-69
2022/05/06 10:57:32;;;;;;;8.00;5.85;;;;;;;-145.50;100.00;65435.88;5051327;28;20056;-69
2022/05/06 11:00:02;;;;;;;12.07;6.30;;;;;;;-145.50;100.00;65435.88;5062248;28;20049;-69
2022/05/06 11:02:31;;;;;;;9.68;5.55;;;;;;;-145.50;100.00;65435.88;5067146;28;20062;-69
2022/05/06 11:05:00;;;;;;;5.45;4.45;;;;;;;-145.50;100.00;65435.88;5081080;28;20397;-69
2022/05/06 11:07:30;;;;;;;7.47;5.90;;;;;;;-145.50;100.00;65435.88;5066089;28;20056;-69
2022/05/06 11:09:56;;;;;;;6.65;5.20;;;;;;;-145.50;100.00;65435.88;5077028;28;20094;-69
2022/05/06 11:12:33;;;;;;;6.68;5.05;;;;;;;-145.50;100.00;65435.88;5074983;28;20527;-69
2022/05/06 11:15:04;;;;;;;5.82;4.53;;;;;;;-145.50;100.00;65435.88;5059802;28;20056;-69
2022/05/06 11:17:32;;;;;;;4.80;3.72;;;;;;;-145.50;100.00;65435.88;5083067;28;20048;-69
2022/05/06 11:20:00;;;;;;;6.53;5.10;;;;;;;-145.50;100.00;65435.88;5076931;28;20051;-69
2022/05/06 11:22:27;;;;;;;7.35;4.55;;;;;;;-145.50;100.00;65435.88;5082839;28;20056;-70
2022/05/06 11:24:58;;;;;;;5.72;4.57;;;;;;;-145.50;100.00;65435.88;5055955;28;20212;-70
2022/05/06 11:27:25;;;;;;;7.90;4.97;;;;;;;-145.50;100.00;65435.88;5064823;28;20528;-69
2022/05/06 11:29:57;;;;;;;8.25;5.50;;;;;;;-145.50;100.00;65435.88;5083843;28;20050;-69
2022/05/06 11:32:25;;;;;;;6.65;5.53;;;;;;;-145.50;100.00;65435.88;5085827;28;20582;-69
2022/05/06 11:34:59;;;;;;;5.97;4.90;;;;;;;-145.50;100.00;65435.88;5101496;28;20530;-70
2022/05/06 11:37:28;;;;;;;6.53;4.80;;;;;;;-145.50;100.00;65435.88;5072510;28;20526;-68
2022/05/06 11:42:40;;;;;;;4.60;4.15;;;;;;;-145.50;100.00;65435.88;5076613;28;20652;-68
2022/05/06 11:48:12;;;;;;;7.38;5.10;;;;;;;-145.50;100.00;65435.88;5062875;28;20052;-68
2022/05/06 11:50:39;;;;;;;7.75;4.05;;;;;;;-145.50;100.00;65435.88;5080039;28;20472;-68
2022/05/06 11:53:09;;;;;;;9.82;5.22;;;;;;;-145.50;100.00;65435.88;5080441;28;20047;-69
2022/05/06 11:55:37;;;;;;;6.50;4.50;;;;;;;-145.50;100.00;65435.88;5062995;28;20505;-68